Time;durP1;ratioP1;P1;durP2;ratioP2;P2;SDS_P1;SDS_P2;PMS_P1;PMS_P2;Temp;Humidity;BMP_temperature;BMP_pressure;BME280_temperature;BME280_humidity;BME280_pressure;Samples;Min_cycle;Max_cycle;Signal;HPM_P1;HPM_P2
2024/03/23 00:01:44;;;;;;;8.23;2.33;;;;;;;10.19;92.76;100642.84;5038023;28;20037;-69
2024/03/23 00:04:12;;;;;;;5.35;2.78;;;;;;;10.29;91.40;100643.66;5039056;28;20045;-69
2024/03/23 00:06:39;;;;;;;5.28;2.35;;;;;;;10.32;91.58;100636.53;5039329;28;20029;-69
2024/03/23 00:09:06;;;;;;;5.07;2.30;;;;;;;10.20;92.44;100631.47;5046777;28;20055;-69
2024/03/23 00:11:32;;;;;;;3.38;1.65;;;;;;;10.10;93.28;100627.19;5040055;28;20041;-69
2024/03/23 00:13:59;;;;;;;5.85;1.88;;;;;;;10.02;93.91;100630.47;5045291;28;20388;-69
2024/03/23 00:16:26;;;;;;;2.55;1.95;;;;;;;9.97;94.82;100622.25;5038744;28;20025;-69
2024/03/23 00:18:52;;;;;;;4.82;1.67;;;;;;;9.91;95.18;100620.22;5038133;28;20041;-69
2024/03/23 00:21:19;;;;;;;7.40;2.22;;;;;;;9.82;95.25;100610.63;5041440;28;20040;-69
2024/03/23 00:23:46;;;;;;;9.00;2.40;;;;;;;9.79;95.77;100614.31;5034864;28;20030;-69
2024/03/23 00:26:12;;;;;;;3.55;2.03;;;;;;;9.77;96.00;100612.78;5044110;28;20033;-69
2024/03/23 00:28:39;;;;;;;5.30;2.83;;;;;;;9.72;96.62;100612.38;5039123;28;20025;-69
2024/03/23 00:31:05;;;;;;;4.68;2.30;;;;;;;9.62;96.98;100610.59;5026408;28;20040;-69
2024/03/23 00:33:31;;;;;;;4.03;1.83;;;;;;;9.56;97.33;100610.28;5043698;28;20125;-69
2024/03/23 00:35:58;;;;;;;2.58;1.27;;;;;;;9.50;97.83;100593.44;5041054;28;20025;-69
2024/03/23 00:38:24;;;;;;;4.60;2.00;;;;;;;9.47;97.89;100598.91;5038013;28;20037;-69
2024/03/23 00:40:54;;;;;;;3.72;1.73;;;;;;;9.44;98.09;100596.59;5041372;28;20061;-69
2024/03/23 00:43:20;;;;;;;2.88;1.35;;;;;;;9.39;98.46;100592.75;5035927;28;20112;-69
2024/03/23 00:45:47;;;;;;;3.63;1.98;;;;;;;9.32;98.97;100585.50;5036515;28;20036;-69
2024/03/23 00:48:14;;;;;;;4.70;1.75;;;;;;;9.26;98.78;100582.59;5042521;28;20098;-69
2024/03/23 00:50:41;;;;;;;7.95;1.38;;;;;;;9.20;98.91;100575.31;5044233;28;20447;-69
2024/03/23 00:53:07;;;;;;;6.30;1.08;;;;;;;9.17;99.40;100571.22;5044703;28;20481;-69
2024/03/23 00:55:33;;;;;;;6.07;1.30;;;;;;;9.13;99.92;100569.00;5041899;28;20452;-69
2024/03/23 00:57:58;;;;;;;3.15;1.25;;;;;;;9.05;100.00;100556.66;5047970;28;20075;-69
2024/03/23 01:00:24;;;;;;;2.88;1.75;;;;;;;9.01;100.00;100552.69;5043009;28;20554;-68
2024/03/23 01:02:49;;;;;;;3.83;1.92;;;;;;;9.01;100.00;100549.28;5041154;28;20698;-67
2024/03/23 01:05:14;;;;;;;5.05;2.30;;;;;;;8.96;100.00;100545.31;5042409;28;20076;-67
2024/03/23 01:07:40;;;;;;;4.20;1.98;;;;;;;8.92;100.00;100536.13;5048043;28;20048;-67
2024/03/23 01:10:06;;;;;;;2.85;1.42;;;;;;;8.89;100.00;100540.78;5046632;28;20079;-67
2024/03/23 01:12:31;;;;;;;7.13;1.88;;;;;;;8.82;100.00;100532.69;5045752;28;20436;-67
2024/03/23 01:14:56;;;;;;;7.65;1.65;;;;;;;8.77;100.00;100529.66;5047545;28;20116;-67
2024/03/23 01:17:22;;;;;;;5.18;1.98;;;;;;;8.74;100.00;100531.69;5039145;28;20378;-69
2024/03/23 01:19:47;;;;;;;4.50;1.67;;;;;;;8.70;100.00;100535.50;5045160;28;20061;-68
2024/03/23 01:22:13;;;;;;;2.83;1.38;;;;;;;8.60;100.00;100531.09;5040567;28;20043;-68
2024/03/23 01:24:38;;;;;;;4.78;2.40;;;;;;;8.53;100.00;100535.16;5044921;28;20044;-69
2024/03/23 01:27:04;;;;;;;4.28;1.83;;;;;;;8.50;100.00;100537.22;5042905;28;20033;-67
2024/03/23 01:29:29;;;;;;;7.50;2.45;;;;;;;8.46;100.00;100538.41;5040119;28;20029;-67
2024/03/23 01:31:55;;;;;;;5.40;2.35;;;;;;;8.46;100.00;100535.81;5045207;28;20518;-68
2024/03/23 01:34:20;;;;;;;6.70;2.17;;;;;;;8.44;100.00;100542.91;5044451;28;20032;-68
2024/03/23 01:36:46;;;;;;;10.88;2.70;;;;;;;8.38;100.00;100551.22;5040902;28;20127;-69
2024/03/23 01:39:14;;;;;;;8.82;2.58;;;;;;;8.33;100.00;100554.19;5043282;28;20029;-69
2024/03/23 01:41:42;;;;;;;6.75;3.00;;;;;;;8.26;100.00;100548.66;5040473;28;20048;-70
2024/03/23 01:44:07;;;;;;;7.50;2.35;;;;;;;8.21;100.00;100556.00;5044266;28;20826;-69
2024/03/23 01:46:37;;;;;;;5.50;2.63;;;;;;;8.21;100.00;100550.81;5040512;28;20140;-69
2024/03/23 01:49:02;;;;;;;7.70;2.83;;;;;;;8.19;100.00;100544.91;5041466;28;20025;-69
2024/03/23 01:51:29;;;;;;;6.65;2.38;;;;;;;8.17;100.00;100546.00;5049335;28;20333;-69
2024/03/23 01:53:54;;;;;;;4.93;2.03;;;;;;;8.12;100.00;100546.38;5045607;28;20535;-69
2024/03/23 01:56:20;;;;;;;5.80;2.70;;;;;;;8.13;100.00;100540.22;5045675;28;20171;-69
2024/03/23 01:58:46;;;;;;;3.95;2.17;;;;;;;8.08;100.00;100532.00;5048418;28;20110;-69
2024/03/23 02:01:11;;;;;;;5.30;2.00;;;;;;;8.07;100.00;100538.13;5043669;28;20472;-69
2024/03/23 02:03:37;;;;;;;4.68;2.47;;;;;;;8.05;100.00;100537.44;5043870;28;20096;-69
2024/03/23 02:06:03;;;;;;;5.35;2.17;;;;;;;7.97;100.00;100526.91;5045112;28;20037;-69
2024/03/23 02:08:30;;;;;;;6.78;2.13;;;;;;;8.13;100.00;100524.66;5045458;28;20408;-69
2024/03/23 02:10:55;;;;;;;5.63;2.63;;;;;;;8.33;100.00;100517.84;5037509;28;20424;-69
2024/03/23 02:13:21;;;;;;;4.75;1.63;;;;;;;8.21;100.00;100513.63;5043924;28;20079;-69
2024/03/23 02:15:47;;;;;;;5.82;2.17;;;;;;;8.08;100.00;100513.84;5049012;28;20090;-69
2024/03/23 02:18:13;;;;;;;5.15;2.10;;;;;;;8.14;100.00;100508.13;5042023;28;20061;-69
2024/03/23 02:20:38;;;;;;;7.00;1.50;;;;;;;8.34;100.00;100500.50;5048119;28;20070;-69
2024/03/23 02:23:07;;;;;;;7.38;2.10;;;;;;;8.27;100.00;100493.19;5045649;28;20040;-68
2024/03/23 02:25:33;;;;;;;6.47;1.63;;;;;;;8.17;100.00;100497.50;5044944;28;20040;-69
2024/03/23 02:27:59;;;;;;;6.30;2.05;;;;;;;8.11;100.00;100486.81;5043296;28;20404;-69
2024/03/23 02:30:25;;;;;;;6.10;1.63;;;;;;;8.04;100.00;100481.31;5040821;28;20021;-69
2024/03/23 02:32:51;;;;;;;5.88;1.67;;;;;;;7.97;100.00;100475.84;5045621;28;20041;-69
2024/03/23 02:35:16;;;;;;;4.45;1.38;;;;;;;7.93;100.00;100477.03;5041648;28;20036;-69
2024/03/23 02:37:41;;;;;;;6.75;1.75;;;;;;;7.88;100.00;100486.13;5044675;28;20090;-69
2024/03/23 02:40:07;;;;;;;3.63;1.92;;;;;;;7.84;100.00;100485.56;5040858;28;20033;-69
2024/03/23 02:42:33;;;;;;;2.70;1.40;;;;;;;7.80;100.00;100483.34;5045847;28;20036;-69
2024/03/23 02:44:59;;;;;;;3.08;1.80;;;;;;;7.71;100.00;100478.91;5047716;28;20538;-69
2024/03/23 02:47:24;;;;;;;4.05;1.55;;;;;;;7.66;100.00;100482.69;5044477;28;20112;-69
2024/03/23 02:49:49;;;;;;;4.78;1.55;;;;;;;7.63;100.00;100475.16;5044267;28;20549;-69
2024/03/23 02:52:15;;;;;;;4.15;1.77;;;;;;;7.62;100.00;100476.13;5042873;28;20128;-69
2024/03/23 02:54:44;;;;;;;2.72;1.38;;;;;;;7.60;100.00;100478.00;5045164;28;20036;-69
2024/03/23 02:57:10;;;;;;;4.22;1.60;;;;;;;7.56;100.00;100476.63;5043873;28;20038;-69
2024/03/23 02:59:35;;;;;;;2.60;1.35;;;;;;;7.56;100.00;100476.63;5045374;28;20025;-69
2024/03/23 03:02:01;;;;;;;3.50;1.30;;;;;;;7.56;100.00;100475.81;5041423;28;20025;-69
2024/03/23 03:04:26;;;;;;;6.95;1.73;;;;;;;7.54;100.00;100473.34;5040260;28;20116;-69
2024/03/23 03:06:52;;;;;;;3.33;1.73;;;;;;;7.51;100.00;100465.81;5040311;28;20408;-69
2024/03/23 03:09:17;;;;;;;2.65;1.65;;;;;;;7.50;100.00;100455.59;5039638;28;20041;-69
2024/03/23 03:11:42;;;;;;;4.68;1.70;;;;;;;7.47;100.00;100461.00;5039331;28;20434;-69
2024/03/23 03:14:08;;;;;;;4.40;1.63;;;;;;;7.47;100.00;100466.19;5044353;28;20542;-69
2024/03/23 03:16:34;;;;;;;5.45;1.58;;;;;;;7.48;100.00;100460.88;5041127;28;20039;-69
2024/03/23 03:19:00;;;;;;;3.47;1.50;;;;;;;7.48;100.00;100463.47;5034409;28;20026;-69
2024/03/23 03:21:25;;;;;;;6.63;1.80;;;;;;;7.46;100.00;100459.38;5041328;28;20467;-69
2024/03/23 03:23:50;;;;;;;4.03;1.90;;;;;;;7.44;100.00;100463.84;5045320;28;20028;-69
2024/03/23 03:26:19;;;;;;;3.95;1.70;;;;;;;7.45;100.00;100461.13;5040894;28;20222;-69
2024/03/23 03:28:48;;;;;;;6.55;2.00;;;;;;;7.43;100.00;100468.22;5041307;28;20029;-69
2024/03/23 03:31:17;;;;;;;6.25;1.88;;;;;;;7.39;100.00;100468.59;5044411;28;20460;-69
2024/03/23 03:33:43;;;;;;;5.18;1.90;;;;;;;7.33;100.00;100462.13;5044587;28;20498;-69
2024/03/23 03:36:08;;;;;;;2.40;1.40;;;;;;;7.30;100.00;100464.97;5047653;28;20090;-69
2024/03/23 03:38:35;;;;;;;3.78;1.67;;;;;;;7.27;100.00;100470.38;5039403;28;20033;-69
2024/03/23 03:41:01;;;;;;;2.75;1.58;;;;;;;7.26;100.00;100466.16;5046096;28;20024;-69
2024/03/23 03:43:27;;;;;;;4.30;2.03;;;;;;;7.21;100.00;100465.69;5045908;28;20032;-69
2024/03/23 03:45:53;;;;;;;6.82;1.85;;;;;;;7.20;100.00;100469.22;5042608;28;20041;-69
2024/03/23 03:48:19;;;;;;;3.05;1.40;;;;;;;7.18;100.00;100460.75;5043434;28;20060;-69
2024/03/23 03:50:44;;;;;;;3.17;1.42;;;;;;;7.11;100.00;100457.00;5047826;28;20103;-69
2024/03/23 03:53:10;;;;;;;4.63;1.55;;;;;;;7.10;100.00;100470.91;5045191;28;20037;-69
2024/03/23 03:55:35;;;;;;;6.80;2.28;;;;;;;7.16;100.00;100471.25;5046674;28;20029;-69
2024/03/23 03:58:01;;;;;;;4.82;1.83;;;;;;;7.23;100.00;100461.22;5042811;28;20388;-68
2024/03/23 04:00:26;;;;;;;2.95;1.80;;;;;;;7.38;100.00;100459.97;5047646;28;20464;-68
2024/03/23 04:02:52;;;;;;;5.32;1.88;;;;;;;7.79;100.00;100461.78;5044024;28;20024;-69
2024/03/23 04:05:17;;;;;;;4.80;2.05;;;;;;;7.80;100.00;100462.59;5042970;28;20037;-69
2024/03/23 04:07:42;;;;;;;7.63;1.60;;;;;;;7.77;100.00;100470.63;5043036;28;20033;-69
2024/03/23 04:10:08;;;;;;;4.50;1.58;;;;;;;7.69;100.00;100465.25;5040083;28;20112;-69
2024/03/23 04:12:34;;;;;;;5.75;1.90;;;;;;;7.47;100.00;100464.44;5043375;28;20033;-68
2024/03/23 04:15:00;;;;;;;6.35;1.90;;;;;;;7.32;100.00;100460.47;5043184;28;20029;-69
2024/03/23 04:17:31;;;;;;;7.22;2.15;;;;;;;7.23;100.00;100467.22;5045930;28;20599;-69
2024/03/23 04:19:57;;;;;;;6.85;1.58;;;;;;;7.26;100.00;100468.75;5041696;28;20037;-69
2024/03/23 04:22:24;;;;;;;5.45;2.10;;;;;;;7.35;100.00;100462.00;5042917;28;20110;-69
2024/03/23 04:24:49;;;;;;;8.73;2.58;;;;;;;7.28;100.00;100456.47;5043288;28;20059;-69
2024/03/23 04:27:14;;;;;;;4.32;2.53;;;;;;;7.28;100.00;100456.47;5042980;28;20033;-69
2024/03/23 04:29:40;;;;;;;6.28;2.13;;;;;;;7.23;100.00;100453.44;5046632;28;20036;-69
2024/03/23 04:32:06;;;;;;;6.13;2.00;;;;;;;7.19;100.00;100450.25;5043919;28;20052;-68
2024/03/23 04:34:32;;;;;;;5.90;1.98;;;;;;;7.14;100.00;100464.53;5043698;28;20040;-69
2024/03/23 04:36:58;;;;;;;5.03;1.42;;;;;;;7.09;100.00;100458.91;5046995;28;20037;-69
2024/03/23 04:39:24;;;;;;;9.32;1.58;;;;;;;7.06;100.00;100462.56;5045177;28;20036;-69
2024/03/23 04:41:50;;;;;;;7.32;1.60;;;;;;;6.97;100.00;100453.75;5047686;28;20029;-68
2024/03/23 04:44:15;;;;;;;6.63;1.75;;;;;;;6.94;100.00;100456.59;5047056;28;20491;-69
2024/03/23 04:46:40;;;;;;;3.42;1.98;;;;;;;6.88;100.00;100454.50;5046174;28;20102;-69
2024/03/23 04:49:06;;;;;;;4.50;2.15;;;;;;;6.85;100.00;100449.53;5043542;28;20486;-69
2024/03/23 04:51:39;;;;;;;5.90;2.13;;;;;;;6.84;100.00;100447.91;5042344;28;20044;-69
2024/03/23 04:54:05;;;;;;;3.70;2.00;;;;;;;6.82;100.00;100449.78;5034689;28;20108;-68
2024/03/23 04:56:31;;;;;;;4.47;2.20;;;;;;;6.82;100.00;100449.78;5044189;28;20443;-68
2024/03/23 04:59:01;;;;;;;5.47;1.98;;;;;;;6.85;100.00;100448.72;5045207;28;20033;-68
2024/03/23 05:01:27;;;;;;;4.45;2.80;;;;;;;6.85;100.00;100439.19;5045624;28;20095;-69
2024/03/23 05:03:52;;;;;;;4.20;1.83;;;;;;;6.86;100.00;100435.66;5039618;28;20193;-69
2024/03/23 05:06:18;;;;;;;3.47;1.77;;;;;;;6.85;100.00;100444.38;5041772;28;20037;-69
2024/03/23 05:08:44;;;;;;;5.35;2.80;;;;;;;6.86;100.00;100437.41;5043723;28;20044;-69
2024/03/23 05:11:10;;;;;;;7.28;3.58;;;;;;;6.87;100.00;100439.88;5045970;28;20122;-69
2024/03/23 05:13:35;;;;;;;5.22;2.17;;;;;;;6.90;100.00;100437.06;5049743;28;20040;-69
2024/03/23 05:16:01;;;;;;;6.05;2.10;;;;;;;6.91;100.00;100433.53;5048797;28;20033;-69
2024/03/23 05:18:28;;;;;;;4.13;1.52;;;;;;;6.92;100.00;100432.59;5044725;28;20044;-69
2024/03/23 05:20:59;;;;;;;5.40;1.60;;;;;;;7.00;100.00;100426.78;5047060;28;20037;-69
2024/03/23 05:23:26;;;;;;;4.43;1.33;;;;;;;7.05;100.00;100423.84;5047170;28;20040;-69
2024/03/23 05:25:51;;;;;;;4.25;1.70;;;;;;;7.10;100.00;100432.03;5046526;28;20124;-69
2024/03/23 05:28:18;;;;;;;4.07;1.42;;;;;;;7.16;100.00;100428.97;5050012;28;20544;-69
2024/03/23 05:30:43;;;;;;;3.22;1.30;;;;;;;7.20;100.00;100427.75;5048742;28;20029;-69
2024/03/23 05:33:09;;;;;;;3.95;1.25;;;;;;;7.23;100.00;100432.72;5047390;28;20154;-69
2024/03/23 05:35:34;;;;;;;4.55;1.50;;;;;;;7.27;100.00;100421.16;5042504;28;20033;-69
2024/03/23 05:37:59;;;;;;;6.20;1.73;;;;;;;7.32;100.00;100424.19;5038354;28;20134;-69
2024/03/23 05:40:28;;;;;;;4.25;1.95;;;;;;;7.39;100.00;100427.94;5047090;28;20050;-69
2024/03/23 05:42:53;;;;;;;7.10;3.47;;;;;;;7.47;100.00;100430.72;5051245;28;20037;-69
2024/03/23 05:45:19;;;;;;;17.65;6.80;;;;;;;7.51;100.00;100431.31;5045071;28;20033;-69
2024/03/23 05:47:45;;;;;;;14.45;5.47;;;;;;;7.57;100.00;100423.81;5051029;28;20863;-69
2024/03/23 05:50:12;;;;;;;5.50;2.63;;;;;;;7.66;100.00;100423.06;5045740;28;20037;-69
2024/03/23 05:52:38;;;;;;;5.65;1.83;;;;;;;7.77;100.00;100426.53;5051035;28;20036;-69
2024/03/23 05:55:05;;;;;;;2.83;1.85;;;;;;;7.82;100.00;100425.22;5051963;28;20073;-69
2024/03/23 05:57:30;;;;;;;3.20;2.05;;;;;;;7.83;100.00;100418.25;5045125;28;20039;-69
2024/03/23 05:59:56;;;;;;;5.97;2.20;;;;;;;7.95;100.00;100430.22;5043711;28;20040;-69
2024/03/23 06:02:22;;;;;;;9.32;2.28;;;;;;;8.06;100.00;100426.69;5044619;28;20039;-69
2024/03/23 06:04:48;;;;;;;2.90;1.58;;;;;;;8.20;100.00;100424.56;5043837;28;20048;-69
2024/03/23 06:07:14;;;;;;;4.22;2.00;;;;;;;8.38;100.00;100424.81;5046598;28;20029;-69
2024/03/23 06:09:42;;;;;;;6.40;2.22;;;;;;;8.47;100.00;100426.63;5048551;28;20091;-69
2024/03/23 06:12:08;;;;;;;4.72;2.17;;;;;;;8.49;100.00;100419.53;5045516;28;20115;-69
2024/03/23 06:14:34;;;;;;;7.55;2.15;;;;;;;8.53;100.00;100420.88;5039107;28;20476;-69
2024/03/23 06:17:00;;;;;;;5.97;2.15;;;;;;;8.62;100.00;100424.47;5039930;28;20037;-70
2024/03/23 06:19:27;;;;;;;3.40;1.77;;;;;;;8.77;100.00;100423.16;5042835;28;20079;-70
2024/03/23 06:21:56;;;;;;;5.55;2.10;;;;;;;8.83;100.00;100414.81;5048026;28;20463;-69
2024/03/23 06:24:27;;;;;;;4.68;2.17;;;;;;;8.87;98.74;100413.59;5046286;28;20034;-69
2024/03/23 06:26:52;;;;;;;12.60;2.50;;;;;;;9.01;98.48;100416.72;5042856;28;20378;-69
2024/03/23 06:29:18;;;;;;;5.38;2.30;;;;;;;9.18;97.87;100406.50;5049304;28;20033;-70
2024/03/23 06:31:43;;;;;;;6.65;2.72;;;;;;;9.39;98.02;100413.34;5045739;28;20482;-70
2024/03/23 06:34:08;;;;;;;6.45;2.33;;;;;;;9.57;96.03;100409.88;5041479;28;20354;-70
2024/03/23 06:36:34;;;;;;;4.88;2.33;;;;;;;9.80;94.21;100406.97;5048721;28;20025;-69
2024/03/23 06:39:00;;;;;;;3.88;2.55;;;;;;;10.06;93.58;100400.16;5044051;28;20442;-69
2024/03/23 06:41:26;;;;;;;4.07;2.05;;;;;;;10.37;93.02;100405.16;5047849;28;20033;-70
2024/03/23 06:43:51;;;;;;;3.72;1.83;;;;;;;10.73;91.85;100396.44;5047279;28;20028;-69
2024/03/23 06:46:17;;;;;;;2.53;1.50;;;;;;;11.01;89.34;100393.75;5044872;28;20033;-70
2024/03/23 06:48:45;;;;;;;4.18;1.70;;;;;;;11.28;87.63;100389.28;5049202;28;20094;-69
2024/03/23 06:51:10;;;;;;;5.47;1.75;;;;;;;11.52;85.52;100393.84;5045896;28;20028;-69
2024/03/23 06:53:35;;;;;;;4.93;1.25;;;;;;;11.77;83.63;100386.22;5043619;28;20556;-69
2024/03/23 06:56:01;;;;;;;3.97;0.88;;;;;;;12.01;84.57;100388.97;5044742;28;20405;-69
2024/03/23 06:58:26;;;;;;;4.25;1.08;;;;;;;11.91;80.79;100380.41;5047164;28;20170;-69
2024/03/23 07:00:55;;;;;;;2.88;1.40;;;;;;;12.00;83.54;100376.88;5042946;28;20396;-69
2024/03/23 07:03:21;;;;;;;1.73;0.73;;;;;;;11.99;79.02;100374.41;5045006;28;20481;-69
2024/03/23 07:05:47;;;;;;;3.70;1.13;;;;;;;12.04;81.69;100378.22;5037444;28;20037;-69
2024/03/23 07:08:12;;;;;;;3.00;0.70;;;;;;;11.99;76.70;100384.88;5045136;28;20502;-69
2024/03/23 07:10:44;;;;;;;1.77;0.65;;;;;;;11.98;80.40;100384.03;5042409;28;20472;-70
2024/03/23 07:13:09;;;;;;;1.92;0.70;;;;;;;11.95;80.54;100376.53;5039547;28;20041;-69
2024/03/23 07:15:35;;;;;;;1.35;0.60;;;;;;;11.90;79.86;100379.59;5039029;28;20017;-69
2024/03/23 07:18:00;;;;;;;1.63;0.70;;;;;;;12.04;76.43;100372.97;5034546;28;20029;-69
2024/03/23 07:20:26;;;;;;;5.32;0.50;;;;;;;12.37;77.69;100370.50;5045766;28;20067;-69
2024/03/23 07:22:51;;;;;;;3.80;0.65;;;;;;;12.68;77.26;100368.16;5049218;28;20129;-69
2024/03/23 07:25:17;;;;;;;1.63;0.43;;;;;;;12.94;75.22;100366.22;5044967;28;20594;-69
2024/03/23 07:27:42;;;;;;;2.60;0.60;;;;;;;13.03;74.74;100361.81;5039289;28;20484;-69
2024/03/23 07:30:08;;;;;;;3.33;0.73;;;;;;;13.14;73.02;100359.69;5040135;28;20029;-69
2024/03/23 07:32:34;;;;;;;1.33;0.40;;;;;;;13.26;73.09;100358.38;5042002;28;20076;-69
2024/03/23 07:35:00;;;;;;;0.88;0.40;;;;;;;13.35;74.36;100353.97;5044456;28;20029;-69
2024/03/23 07:37:25;;;;;;;2.80;0.63;;;;;;;13.44;74.54;100352.16;5037150;28;20039;-69
2024/03/23 07:39:51;;;;;;;5.95;0.60;;;;;;;13.56;73.88;100354.28;5042092;28;20029;-69
2024/03/23 07:42:17;;;;;;;2.40;0.45;;;;;;;13.65;71.97;100347.22;5043808;28;20053;-69
2024/03/23 07:44:43;;;;;;;1.52;0.47;;;;;;;13.81;72.19;100354.22;5039069;28;20571;-70
2024/03/23 07:47:08;;;;;;;4.53;0.50;;;;;;;13.96;70.66;100344.69;5036566;28;20377;-70
2024/03/23 07:49:33;;;;;;;2.15;0.60;;;;;;;13.85;71.67;100343.22;5047552;28;20090;-69
2024/03/23 07:51:59;;;;;;;4.38;0.80;;;;;;;13.89;73.77;100338.47;5041332;28;20110;-69
2024/03/23 07:54:24;;;;;;;6.40;0.98;;;;;;;14.27;73.64;100339.47;5048370;28;20039;-69
2024/03/23 07:56:50;;;;;;;1.13;0.50;;;;;;;14.33;71.46;100349.25;5043231;28;20047;-70
2024/03/23 07:59:15;;;;;;;1.15;0.40;;;;;;;14.33;72.15;100345.81;5047592;28;20593;-69
2024/03/23 08:01:40;;;;;;;1.80;0.68;;;;;;;14.41;70.63;100345.78;5048061;28;20499;-69
2024/03/23 08:04:06;;;;;;;3.00;0.60;;;;;;;14.57;70.42;100340.47;5044126;28;20029;-69
2024/03/23 08:06:31;;;;;;;3.05;0.70;;;;;;;14.86;72.24;100335.34;5041574;28;20393;-69
2024/03/23 08:09:00;;;;;;;5.75;0.60;;;;;;;15.31;72.85;100333.66;5039191;28;20349;-69
2024/03/23 08:11:27;;;;;;;3.35;0.85;;;;;;;15.74;72.70;100331.28;5042565;28;20115;-78
2024/03/23 08:13:53;;;;;;;7.90;0.95;;;;;;;15.98;71.31;100332.84;5047466;28;20116;-69
2024/03/23 08:16:18;;;;;;;1.40;0.63;;;;;;;16.06;71.15;100330.94;5044194;28;20128;-72
2024/03/23 08:18:44;;;;;;;2.88;0.40;;;;;;;16.29;71.37;100328.16;5045030;28;20087;-69
2024/03/23 08:21:09;;;;;;;3.03;0.52;;;;;;;16.22;71.68;100316.75;5041780;28;20087;-69
2024/03/23 08:23:37;;;;;;;2.83;0.40;;;;;;;16.33;72.46;100324.16;5043530;28;20485;-70
2024/03/23 08:26:15;;;;;;;3.83;0.80;;;;;;;16.32;70.10;100316.44;5033134;28;20060;-78
2024/03/23 08:28:40;;;;;;;1.73;0.60;;;;;;;16.56;71.83;100313.47;5037350;28;20493;-75
2024/03/23 08:31:08;;;;;;;2.33;0.50;;;;;;;16.85;71.94;100308.13;5039933;28;20029;-74
2024/03/23 08:33:34;;;;;;;3.45;0.60;;;;;;;16.96;71.98;100311.25;5039237;28;20061;-74
2024/03/23 08:36:01;;;;;;;1.77;0.77;;;;;;;17.13;71.59;100297.59;5040141;28;20055;-75
2024/03/23 08:38:28;;;;;;;1.83;0.73;;;;;;;17.33;71.35;100300.41;5040788;28;20484;-74
2024/03/23 08:41:07;;;;;;;2.75;0.85;;;;;;;17.32;68.07;100292.69;5042657;28;20125;-73
2024/03/23 08:43:35;;;;;;;3.90;1.10;;;;;;;17.27;71.65;100293.25;5042732;28;20028;-74
2024/03/23 08:46:08;;;;;;;3.30;0.93;;;;;;;17.56;71.19;100285.13;5036873;28;20480;-74
2024/03/23 08:48:35;;;;;;;3.53;1.05;;;;;;;17.74;71.10;100276.75;5036646;28;20094;-74
2024/03/23 08:51:05;;;;;;;2.22;0.90;;;;;;;17.59;70.97;100274.19;5036542;28;20021;-74
2024/03/23 08:53:32;;;;;;;2.35;1.00;;;;;;;17.78;71.18;100269.25;5033195;28;20116;-74
2024/03/23 08:55:58;;;;;;;3.05;1.40;;;;;;;17.77;70.51;100268.44;5039190;28;20061;-75
2024/03/23 08:58:25;;;;;;;2.13;0.95;;;;;;;18.02;70.49;100263.47;5038255;28;20040;-74
2024/03/23 09:00:57;;;;;;;2.72;1.30;;;;;;;18.24;70.47;100270.25;5032766;28;20088;-75
2024/03/23 09:03:24;;;;;;;5.40;1.10;;;;;;;18.53;70.08;100273.53;5039708;28;20044;-75
2024/03/23 09:05:50;;;;;;;4.13;1.10;;;;;;;18.63;69.23;100262.63;5037655;28;20057;-75
2024/03/23 09:08:16;;;;;;;2.92;0.80;;;;;;;18.20;70.46;100263.72;5037485;28;20072;-75
2024/03/23 09:10:42;;;;;;;5.75;1.85;;;;;;;18.11;71.32;100251.75;5036564;28;20448;-75
2024/03/23 09:13:08;;;;;;;3.28;1.27;;;;;;;17.92;72.23;100249.88;5033161;28;20045;-75
2024/03/23 09:15:37;;;;;;;2.83;1.42;;;;;;;17.62;72.05;100262.47;5035595;28;20477;-75
2024/03/23 09:18:04;;;;;;;4.63;1.73;;;;;;;17.42;71.24;100257.09;5040402;28;20053;-75
2024/03/23 09:20:33;;;;;;;3.95;1.88;;;;;;;17.18;72.08;100254.91;5033976;28;20033;-75
2024/03/23 09:22:58;;;;;;;5.28;1.27;;;;;;;16.97;72.47;100244.47;5033552;28;20473;-75
2024/03/23 09:25:24;;;;;;;2.08;1.25;;;;;;;16.84;72.29;100247.78;5039327;28;20036;-75
2024/03/23 09:27:50;;;;;;;4.53;1.92;;;;;;;16.73;72.72;100245.66;5037640;28;20063;-68
2024/03/23 09:30:16;;;;;;;6.53;1.98;;;;;;;16.64;72.25;100247.63;5033915;28;20196;-68
2024/03/23 09:32:43;;;;;;;3.38;1.38;;;;;;;16.59;71.57;100240.25;5044054;28;20132;-68
2024/03/23 09:35:09;;;;;;;7.38;2.05;;;;;;;16.39;71.11;100241.09;5035320;28;20037;-68
2024/03/23 09:37:35;;;;;;;4.40;1.63;;;;;;;16.49;70.85;100238.97;5038298;28;20345;-68
2024/03/23 09:40:00;;;;;;;4.25;2.10;;;;;;;16.43;71.06;100235.28;5033055;28;20389;-68
2024/03/23 09:42:25;;;;;;;4.57;2.25;;;;;;;16.57;70.40;100225.66;5034380;28;20037;-68
2024/03/23 09:44:51;;;;;;;6.03;1.77;;;;;;;16.55;69.95;100230.31;5033510;28;20374;-68
2024/03/23 09:47:18;;;;;;;5.72;2.17;;;;;;;16.45;70.54;100228.00;5038304;28;20132;-68
2024/03/23 09:49:44;;;;;;;3.25;1.80;;;;;;;16.39;70.60;100223.50;5044709;28;20472;-68
2024/03/23 09:52:10;;;;;;;3.20;1.40;;;;;;;16.32;70.65;100225.25;5033360;28;20512;-68
2024/03/23 09:54:35;;;;;;;5.60;2.00;;;;;;;16.34;69.56;100217.19;5032638;28;20033;-68
2024/03/23 09:57:01;;;;;;;6.68;2.00;;;;;;;16.30;70.25;100210.66;5035319;28;20041;-68
2024/03/23 09:59:26;;;;;;;4.80;2.17;;;;;;;16.34;70.91;100210.09;5036954;28;20116;-66
2024/03/23 10:01:53;;;;;;;4.65;2.38;;;;;;;16.35;70.05;100200.41;5037101;28;20029;-67
2024/03/23 10:04:41;;;;;;;7.18;2.10;;;;;;;16.24;69.95;100197.25;5043465;28;20102;-67
2024/03/23 10:07:20;;;;;;;4.70;2.08;;;;;;;16.27;66.23;100191.63;5036929;28;20376;-66
2024/03/23 10:09:52;;;;;;;4.32;1.65;;;;;;;16.57;68.90;100196.75;5038874;28;20114;-67
2024/03/23 10:12:19;;;;;;;6.43;2.13;;;;;;;16.73;68.58;100187.78;5038496;28;20393;-67
2024/03/23 10:14:45;;;;;;;3.33;1.20;;;;;;;16.82;67.83;100190.09;5036626;28;20029;-67
2024/03/23 10:17:17;;;;;;;3.30;1.13;;;;;;;16.89;66.85;100185.69;5037389;28;20037;-67
2024/03/23 10:19:47;;;;;;;2.60;1.20;;;;;;;16.94;67.25;100184.31;5046407;28;20037;-67
2024/03/23 10:22:18;;;;;;;3.42;1.17;;;;;;;17.02;63.89;100166.53;5037774;28;20460;-67
2024/03/23 10:24:44;;;;;;;5.45;1.00;;;;;;;16.96;65.41;100162.06;5036978;28;20056;-67
2024/03/23 10:27:15;;;;;;;3.85;0.55;;;;;;;17.09;65.63;100148.16;5039297;28;20029;-67
2024/03/23 10:29:41;;;;;;;2.55;0.63;;;;;;;16.96;64.73;100145.47;5039044;28;20533;-67
2024/03/23 10:32:16;;;;;;;1.55;0.50;;;;;;;16.82;64.29;100139.28;5036603;28;20099;-67
2024/03/23 10:34:42;;;;;;;;;;;;;;;16.71;61.89;100145.91;5036835;28;20042;-67
2024/03/23 10:37:08;;;;;;;2.25;0.52;;;;;;;16.84;65.70;100145.19;5036911;28;19912;-66
2024/03/23 10:39:37;;;;;;;2.00;0.75;;;;;;;16.96;65.44;100142.81;5044556;28;20079;-67
2024/03/23 10:42:04;;;;;;;5.50;0.75;;;;;;;17.11;64.87;100143.50;5036738;28;20040;-67
2024/03/23 10:44:30;;;;;;;2.90;0.88;;;;;;;17.39;63.41;100140.81;5042677;28;20082;-67
2024/03/23 10:46:59;;;;;;;2.63;0.50;;;;;;;17.65;63.46;100133.00;5039262;28;20033;-67
2024/03/23 10:49:35;;;;;;;1.88;0.47;;;;;;;17.77;59.58;100125.34;5050111;28;20024;-67
2024/03/23 10:52:05;;;;;;;1.77;0.50;;;;;;;17.74;62.65;100123.13;5042486;28;20032;-67
2024/03/23 10:54:31;;;;;;;1.10;0.60;;;;;;;17.76;61.57;100116.63;5052083;28;20056;-67
2024/03/23 10:57:08;;;;;;;1.63;0.47;;;;;;;17.97;61.39;100117.47;5041014;28;20033;-67
2024/03/23 10:59:34;;;;;;;1.20;0.40;;;;;;;17.96;62.11;100105.31;5037880;28;20059;-67
2024/03/23 11:02:03;;;;;;;1.45;0.30;;;;;;;17.97;62.24;100099.81;5036991;28;20063;-67
2024/03/23 11:04:33;;;;;;;2.42;0.30;;;;;;;18.01;62.40;100098.41;5036923;28;20098;-67
2024/03/23 11:06:58;;;;;;;0.88;0.40;;;;;;;17.96;60.96;100095.56;5036825;28;20107;-67
2024/03/23 11:09:45;;;;;;;1.00;0.30;;;;;;;17.74;60.43;100086.22;5047743;28;20457;-67
2024/03/23 11:12:32;;;;;;;0.70;0.20;;;;;;;17.48;60.77;100086.97;5037079;28;20064;-67
2024/03/23 11:15:04;;;;;;;1.17;0.30;;;;;;;17.38;62.76;100083.88;5035306;28;20460;-67
2024/03/23 11:17:30;;;;;;;0.70;0.30;;;;;;;17.35;63.44;100085.09;5036480;28;20025;-67
2024/03/23 11:20:00;;;;;;;0.88;0.30;;;;;;;17.23;63.37;100078.75;5034978;28;20128;-67
2024/03/23 11:22:52;;;;;;;2.90;0.30;;;;;;;17.09;59.89;100071.81;5036863;28;20048;-67
2024/03/23 11:25:24;;;;;;;3.92;0.30;;;;;;;16.94;63.75;100058.81;5035111;28;20052;-67